Time;durP1;ratioP1;P1;durP2;ratioP2;P2;SDS_P1;SDS_P2;PMS_P1;PMS_P2;Temp;Humidity;BMP_temperature;BMP_pressure;BME280_temperature;BME280_humidity;BME280_pressure;Samples;Min_cycle;Max_cycle;Signal;HPM_P1;HPM_P2
2021/12/16 00:08:31;;;;;;;;;;;;;;;28.28;65.70;100941.44;5133407;27;70327;-34
2021/12/16 00:11:23;;;;;;;;;;;;;;;28.32;66.81;100939.16;5107576;27;65328;-34
2021/12/16 00:33:42;;;;;;;;;;;;;;;28.73;72.52;100971.50;5125258;27;67245;-34
2021/12/16 00:36:13;;;;;;;;;;;;;;;28.77;73.23;100971.91;5107313;27;69751;-34
2021/12/16 00:38:45;;;;;;;;;;;;;;;28.82;72.88;100982.94;5127693;27;65482;-37
2021/12/16 00:41:18;;;;;;;;;;;;;;;28.79;72.09;100976.06;5070240;27;70058;-34
2021/12/16 00:44:04;;;;;;;;;;;;;;;28.87;69.26;100989.38;5108177;27;65746;-34
2021/12/16 00:49:44;;;;;;;;;;;;;;;28.95;66.70;100991.91;5083886;27;65716;-35
2021/12/16 00:55:49;;;;;;;;;;;;;;;29.03;66.13;100993.63;5092209;27;66218;-34
2021/12/16 00:58:07;;;;;;;;;;;;;;;29.06;65.54;100992.34;5100170;27;70061;-34
2021/12/16 01:00:41;;;;;;;;;;;;;;;29.09;65.31;100997.38;5129448;27;66143;-34
2021/12/16 01:03:28;;;;;;;;;;;;;;;29.12;65.61;101002.34;5131737;27;69626;-34
2021/12/16 01:45:41;;;;;;;;;;;;;;;29.33;64.25;101064.28;5100498;27;69583;-35
2021/12/16 01:57:18;;;;;;;;;;;;;;;29.39;64.09;101063.50;5126905;27;70121;-35
2021/12/16 02:00:08;;;;;;;;;;;;;;;29.40;64.29;101062.44;5112604;27;66209;-35
2021/12/16 02:02:51;;;;;;;;;;;;;;;29.43;64.36;101073.91;5103473;27;69799;-34
2021/12/16 02:08:33;;;;;;;;;;;;;;;29.46;64.22;101074.31;5117452;27;70314;-34
2021/12/16 02:32:53;;;;;;;;;;;;;;;29.60;63.64;101072.44;5126493;27;71410;-33
2021/12/16 02:35:47;;;;;;;;;;;;;;;29.61;63.90;101076.81;5090796;27;65480;-34
2021/12/16 02:38:30;;;;;;;;;;;;;;;29.63;63.48;101074.75;5103693;27;69970;-35
2021/12/16 02:41:21;;;;;;;;;;;;;;;29.63;63.33;101069.34;5126182;27;67746;-35
2021/12/16 02:44:11;;;;;;;;;;;;;;;29.67;63.88;101072.47;5124679;27;70366;-34
2021/12/16 02:49:40;;;;;;;;;;;;;;;29.70;63.72;101066.66;5105197;27;69795;-35
2021/12/16 02:52:21;;;;;;;;;;;;;;;29.72;63.68;101062.69;5099064;27;65509;-34
2021/12/16 02:54:56;;;;;;;;;;;;;;;29.73;63.28;101066.25;5104877;27;69480;-34
2021/12/16 02:57:36;;;;;;;;;;;;;;;29.75;63.62;101067.69;5133058;27;65367;-35
2021/12/16 03:00:14;;;;;;;;;;;;;;;29.76;63.53;101069.38;5110080;27;69484;-33
2021/12/16 03:02:51;;;;;;;;;;;;;;;29.78;63.07;101071.84;5091957;27;65837;-34
2021/12/16 03:05:22;;;;;;;;;;;;;;;29.79;63.39;101066.25;5122814;27;70132;-34
2021/12/16 03:07:53;;;;;;;;;;;;;;;29.81;63.02;101068.72;5119264;27;66827;-34
2021/12/16 03:13:25;;;;;;;;;;;;;;;29.86;63.20;101068.09;5123226;27;66414;-34
2021/12/16 03:16:05;;;;;;;;;;;;;;;29.89;62.77;101051.47;5105127;27;70445;-35
2021/12/16 03:21:20;;;;;;;;;;;;;;;29.92;62.73;101046.47;5106715;27;70006;-34
2021/12/16 03:27:27;;;;;;;;;;;;;;;29.98;62.68;101042.09;5103000;27;70281;-33
2021/12/16 03:38:05;;;;;;;;;;;;;;;30.06;62.38;101042.72;5082658;27;69771;-33
2021/12/16 03:40:39;;;;;;;;;;;;;;;30.08;62.86;101034.38;5124024;27;66704;-34
2021/12/16 03:43:15;;;;;;;;;;;;;;;30.11;62.30;101033.94;5107845;27;68871;-34
2021/12/16 03:48:47;;;;;;;;;;;;;;;30.15;62.26;101024.38;5105012;27;70656;-34
2021/12/16 03:51:22;;;;;;;;;;;;;;;30.15;62.49;101024.38;5089866;27;66869;-36
2021/12/16 03:53:59;;;;;;;;;;;;;;;30.19;62.11;101025.59;5105900;27;70502;-34
2021/12/16 03:56:33;;;;;;;;;;;;;;;30.22;62.27;101018.97;5110920;27;66606;-35
2021/12/16 03:59:14;;;;;;;;;;;;;;;30.25;62.08;101018.53;5105039;27;69080;-35
2021/12/16 04:02:15;;;;;;;;;;;;;;;30.26;62.43;101010.22;5101891;27;66772;-35
2021/12/16 04:04:51;;;;;;;;;;;;;;;30.30;62.26;101002.50;5107200;27;71288;-35
2021/12/16 04:07:24;;;;;;;;;;;;;;;30.31;61.83;100998.72;5110368;27;65630;-34
2021/12/16 04:10:26;;;;;;;;;;;;;;;30.34;61.88;100995.63;5104129;27;70089;-33
2021/12/16 04:12:56;;;;;;;;;;;;;;;30.36;61.97;100988.09;5125468;27;65682;-33
2021/12/16 04:15:27;;;;;;;;;;;;;;;30.39;61.63;100981.44;5101503;27;69985;-33
2021/12/16 04:18:17;;;;;;;;;;;;;;;30.42;62.09;100986.41;5100499;27;66749;-34
2021/12/16 04:21:04;;;;;;;;;;;;;;;30.43;61.76;100988.09;5102794;27;70954;-35
2021/12/16 04:23:34;;;;;;;;;;;;;;;30.45;61.96;100981.44;5106011;27;65654;-33
2021/12/16 04:26:05;;;;;;;;;;;;;;;30.48;61.89;100974.75;5101119;27;72048;-35
2021/12/16 04:28:37;;;;;;;;;;;;;;;30.51;61.40;100966.19;5103201;27;65581;-34
2021/12/16 04:31:07;;;;;;;;;;;;;;;30.49;61.61;100965.56;5113547;27;69109;-34
2021/12/16 04:33:39;;;;;;;;;;;;;;;30.56;61.36;100963.66;5129457;27;67244;-35
2021/12/16 04:36:11;;;;;;;;;;;;;;;30.57;61.27;100962.63;5108438;27;68991;-32
2021/12/16 04:38:44;;;;;;;;;;;;;;;30.46;61.69;100933.53;5103416;27;66665;-33
2021/12/16 04:41:15;;;;;;;;;;;;;;;30.62;61.25;100948.41;5116865;27;69686;-33
2021/12/16 04:43:53;;;;;;;;;;;;;;;30.65;61.72;100948.00;5132969;27;66494;-34
2021/12/16 04:46:26;;;;;;;;;;;;;;;30.66;61.45;100939.66;5109650;27;69852;-34
2021/12/16 04:48:59;;;;;;;;;;;;;;;30.68;61.15;100942.16;5108058;27;64957;-34
2021/12/16 04:51:40;;;;;;;;;;;;;;;30.70;61.36;100938.19;5111180;27;69874;-34
2021/12/16 04:54:11;;;;;;;;;;;;;;;30.72;61.07;100933.34;5112526;27;67140;-33
2021/12/16 04:56:41;;;;;;;;;;;;;;;30.75;61.41;100931.28;5111987;27;69022;-33
2021/12/16 04:59:13;;;;;;;;;;;;;;;30.76;61.41;100928.34;5109131;27;66716;-33
2021/12/16 05:01:49;;;;;;;;;;;;;;;30.78;61.53;100925.41;5110316;27;69602;-39
2021/12/16 05:05:00;;;;;;;;;;;;;;;30.79;60.96;100916.25;5109213;27;67009;-34
2021/12/16 05:07:30;;;;;;;;;;;;;;;30.80;61.32;100912.53;5103366;27;70522;-34
2021/12/16 05:10:27;;;;;;;;;;;;;;;30.82;61.10;100911.25;5119007;27;66525;-33
2021/12/16 05:13:12;;;;;;;;;;;;;;;30.85;60.92;100904.56;5101257;27;70287;-33
2021/12/16 05:15:43;;;;;;;;;;;;;;;30.76;61.06;100884.19;5119665;27;65386;-33
2021/12/16 05:18:23;;;;;;;;;;;;;;;30.87;60.78;100888.91;5102139;27;69054;-32
2021/12/16 05:20:58;;;;;;;;;;;;;;;30.89;60.76;100889.53;5104364;27;65515;-33
2021/12/16 05:26:21;;;;;;;;;;;;;;;30.93;60.88;100874.50;5108227;27;66645;-34
2021/12/16 05:29:17;;;;;;;;;;;;;;;30.94;60.81;100868.03;5115926;27;69779;-34
2021/12/16 05:31:48;;;;;;;;;;;;;;;30.97;60.72;100859.47;5107654;27;66490;-34
2021/12/16 05:34:18;;;;;;;;;;;;;;;30.98;61.06;100850.31;5091424;27;70173;-34
2021/12/16 05:36:49;;;;;;;;;;;;;;;30.99;60.78;100846.53;5106611;27;67289;-34
2021/12/16 05:39:20;;;;;;;;;;;;;;;31.01;61.04;100849.84;5101547;27;68929;-34
2021/12/16 05:42:19;;;;;;;;;;;;;;;31.03;60.80;100839.59;5119869;27;65951;-34
2021/12/16 05:44:50;;;;;;;;;;;;;;;31.05;61.02;100834.81;5100915;27;71050;-33
2021/12/16 05:47:21;;;;;;;;;;;;;;;31.07;60.72;100827.28;5100101;27;66185;-35
2021/12/16 05:49:52;;;;;;;;;;;;;;;31.10;60.78;100821.41;5100987;27;69343;-33
2021/12/16 05:52:23;;;;;;;;;;;;;;;31.11;60.44;100809.53;5105126;27;66672;-33
2021/12/16 05:54:54;;;;;;;;;;;;;;;31.14;60.94;100802.81;5128994;27;69681;-33
2021/12/16 05:57:45;;;;;;;;;;;;;;;30.90;60.48;100761.19;5120191;27;66171;-33
2021/12/16 06:00:27;;;;;;;;;;;;;;;31.16;61.11;100796.13;5115980;27;70527;-33
2021/12/16 06:02:58;;;;;;;;;;;;;;;31.18;60.89;100801.34;5113367;27;65877;-35
2021/12/16 06:05:29;;;;;;;;;;;;;;;31.20;60.94;100787.56;5101333;27;68987;-34
2021/12/16 06:07:59;;;;;;;;;;;;;;;31.19;60.79;100786.72;5107585;27;65700;-33
2021/12/16 06:13:17;;;;;;;;;;;;;;;31.21;60.90;100783.81;5102997;27;65900;-34
2021/12/16 06:22:25;;;;;;;;;;;;;;;31.10;61.17;100753.69;5129351;27;70604;-33
2021/12/16 06:27:20;;;;;;;;;;;;;;;31.22;61.39;100750.22;5118676;27;69394;-34
2021/12/16 06:29:51;;;;;;;;;;;;;;;31.23;61.59;100749.16;5136019;27;65580;-33
2021/12/16 06:32:21;;;;;;;;;;;;;;;31.24;61.21;100740.00;5118193;27;70699;-34
2021/12/16 06:34:52;;;;;;;;;;;;;;;31.25;60.97;100733.50;5119051;27;67066;-35
2021/12/16 06:37:23;;;;;;;;;;;;;;;31.26;61.51;100732.44;5094211;27;68590;-34
2021/12/16 06:39:54;;;;;;;;;;;;;;;31.28;60.95;100724.94;5098467;27;66446;-33
2021/12/16 06:42:36;;;;;;;;;;;;;;;31.29;61.17;100721.19;5107539;27;70049;-35
2021/12/16 06:45:15;;;;;;;;;;;;;;;31.32;61.34;100715.31;5098240;27;66974;-35
2021/12/16 06:47:54;;;;;;;;;;;;;;;31.34;61.19;100708.59;5106877;27;69868;-33
2021/12/16 06:50:51;;;;;;;;;;;;;;;31.37;61.19;100702.75;5120878;27;66237;-34
2021/12/16 06:53:23;;;;;;;;;;;;;;;31.41;61.28;100703.13;5122354;27;70256;-33
2021/12/16 06:56:34;;;;;;;;;;;;;;;31.38;61.13;100684.59;5106195;27;66764;-34
2021/12/16 06:59:03;;;;;;;;;;;;;;;31.47;60.58;100691.34;5121778;27;70444;-34
2021/12/16 07:01:40;;;;;;;;;;;;;;;31.50;60.89;100681.94;5107301;27;66298;-34
2021/12/16 07:04:18;;;;;;;;;;;;;;;31.52;60.93;100677.94;5111512;27;69345;-34
2021/12/16 07:06:57;;;;;;;;;;;;;;;31.54;60.57;100680.44;5099028;27;65777;-35
2021/12/16 07:09:31;;;;;;;;;;;;;;;31.55;60.69;100679.38;5118980;27;70445;-33
2021/12/16 07:12:05;;;;;;;;;;;;;;;31.56;61.15;100667.47;5119707;27;66078;-33
2021/12/16 07:14:41;;;;;;;;;;;;;;;31.56;61.00;100660.16;5119167;27;69859;-34
2021/12/16 07:17:14;;;;;;;;;;;;;;;31.57;61.14;100658.28;5115890;27;66664;-34
2021/12/16 07:19:47;;;;;;;;;;;;;;;31.59;61.08;100657.00;5083249;27;69528;-34
2021/12/16 07:22:21;;;;;;;;;;;;;;;31.60;61.16;100661.34;5118824;27;58863;-35
2021/12/16 07:24:52;;;;;;;;;;;;;;;31.60;60.92;100655.94;5099313;27;68876;-34
2021/12/16 07:27:26;;;;;;;;;;;;;;;31.59;61.00;100662.44;5126590;27;65653;-34
2021/12/16 07:30:00;;;;;;;;;;;;;;;31.60;61.30;100653.22;5116888;27;69842;-34
2021/12/16 07:32:31;;;;;;;;;;;;;;;31.62;61.12;100655.69;5088681;27;65982;-34
2021/12/16 07:35:15;;;;;;;;;;;;;;;31.63;61.00;100664.69;5118856;27;69659;-34
2021/12/16 07:37:45;;;;;;;;;;;;;;;31.63;60.90;100656.53;5132070;27;65957;-35
2021/12/16 07:40:22;;;;;;;;;;;;;;;31.65;60.80;100659.81;5108191;27;70001;-34
2021/12/16 07:43:12;;;;;;;;;;;;;;;31.65;61.22;100657.13;5121588;27;66195;-34
2021/12/16 07:45:45;;;;;;;;;;;;;;;31.65;61.22;100648.97;5127201;27;70047;-34
2021/12/16 07:48:19;;;;;;;;;;;;;;;31.67;61.05;100653.13;5123701;27;67078;-35
2021/12/16 07:50:58;;;;;;;;;;;;;;;31.68;61.19;100653.94;5125593;27;69904;-34
2021/12/16 07:53:40;;;;;;;;;;;;;;;31.69;61.14;100655.59;5123755;27;66876;-34
2021/12/16 07:56:11;;;;;;;;;;;;;;;31.72;60.98;100636.16;5132940;27;70274;-35
2021/12/16 07:59:04;;;;;;;;;;;;;;;31.72;60.97;100639.69;5127351;27;67753;-34
2021/12/16 08:01:40;;;;;;;;;;;;;;;31.74;60.79;100628.63;5100137;27;69387;-34
2021/12/16 08:04:20;;;;;;;;;;;;;;;31.75;60.71;100632.97;5123625;27;65418;-34
2021/12/16 08:06:54;;;;;;;;;;;;;;;31.71;60.72;100619.06;5105996;27;69817;-34
2021/12/16 08:09:24;;;;;;;;;;;;;;;31.80;60.53;100633.13;5128033;27;67108;-34
2021/12/16 08:11:55;;;;;;;;;;;;;;;31.81;60.96;100626.63;5125357;27;70495;-33
2021/12/16 08:14:29;;;;;;;;;;;;;;;31.82;60.68;100628.28;5131524;27;66134;-34
2021/12/16 08:16:59;;;;;;;;;;;;;;;31.85;60.80;100627.81;5131086;27;70558;-35
2021/12/16 08:19:35;;;;;;;;;;;;;;;31.85;60.87;100627.81;5121694;27;66625;-34
2021/12/16 08:22:07;;;;;;;;;;;;;;;31.87;60.55;100627.56;5102913;27;70337;-33
2021/12/16 08:24:38;;;;;;;;;;;;;;;31.87;60.38;100625.69;5131646;27;66328;-34
2021/12/16 08:27:10;;;;;;;;;;;;;;;31.87;60.49;100625.69;5108870;27;69889;-35
2021/12/16 08:29:44;;;;;;;;;;;;;;;31.88;60.85;100621.94;5129619;27;66437;-35
2021/12/16 08:32:15;;;;;;;;;;;;;;;31.87;60.31;100620.25;5120255;27;70118;-34
2021/12/16 08:34:46;;;;;;;;;;;;;;;31.87;60.83;100617.53;5112260;27;65714;-34
2021/12/16 08:37:16;;;;;;;;;;;;;;;31.89;60.35;100612.72;5108145;27;70448;-34
2021/12/16 08:39:47;;;;;;;;;;;;;;;31.90;60.92;100614.41;5109355;27;66750;-35
2021/12/16 08:42:18;;;;;;;;;;;;;;;31.89;60.88;100610.00;5104703;27;70548;-34
2021/12/16 08:44:50;;;;;;;;;;;;;;;31.90;60.82;100619.81;5125406;27;66584;-36
2021/12/16 08:47:23;;;;;;;;;;;;;;;31.91;60.65;100610.63;5128295;27;70578;-34
2021/12/16 08:49:54;;;;;;;;;;;;;;;31.92;60.76;100615.00;5102782;27;65331;-33
2021/12/16 08:52:26;;;;;;;;;;;;;;;31.93;60.72;100616.66;5120408;27;68968;-34
2021/12/16 08:54:59;;;;;;;;;;;;;;;31.92;60.26;100617.72;5129635;27;66166;-35
2021/12/16 08:57:33;;;;;;;;;;;;;;;31.92;60.62;100617.72;5129534;27;69817;-34
2021/12/16 09:00:07;;;;;;;;;;;;;;;31.93;60.97;100624.81;5123646;27;66306;-34
2021/12/16 09:02:40;;;;;;;;;;;;;;;31.92;60.80;100620.41;5113894;27;69399;-33
2021/12/16 09:05:11;;;;;;;;;;;;;;;31.93;60.63;100630.22;5126818;27;66793;-35
2021/12/16 09:07:45;;;;;;;;;;;;;;;31.93;60.64;100623.94;5121295;27;70496;-34
2021/12/16 09:10:21;;;;;;;;;;;;;;;31.92;60.42;100633.97;5129080;27;66039;-34
2021/12/16 09:15:24;;;;;;;;;;;;;;;31.92;60.25;100635.88;5127022;27;65280;-34
2021/12/16 09:17:54;;;;;;;;;;;;;;;31.93;60.80;100632.94;5108138;27;69728;-34
2021/12/16 09:20:25;;;;;;;;;;;;;;;31.93;60.56;100640.22;5124208;27;65985;-35
2021/12/16 09:22:56;;;;;;;;;;;;;;;31.94;60.79;100637.28;5128396;27;70095;-35
2021/12/16 09:25:28;;;;;;;;;;;;;;;31.93;60.48;100635.66;5132100;27;66401;-35
2021/12/16 09:27:59;;;;;;;;;;;;;;;31.94;60.66;100639.19;5106812;27;69625;-35
2021/12/16 09:30:30;;;;;;;;;;;;;;;31.94;60.56;100639.19;5119864;27;67083;-34
2021/12/16 09:33:02;;;;;;;;;;;;;;;31.93;60.53;100641.09;5105731;27;70040;-34
2021/12/16 09:35:34;;;;;;;;;;;;;;;31.94;60.86;100648.16;5137338;27;65621;-35
2021/12/16 09:38:15;;;;;;;;;;;;;;;31.95;60.31;100648.97;5117870;27;69742;-34
2021/12/16 09:40:49;;;;;;;;;;;;;;;31.95;60.78;100646.25;5119706;27;66806;-36
2021/12/16 09:43:21;;;;;;;;;;;;;;;31.95;60.71;100652.50;5121828;27;70390;-33
2021/12/16 09:45:53;;;;;;;;;;;;;;;31.94;60.74;100648.16;5113785;27;66771;-35
2021/12/16 09:48:23;;;;;;;;;;;;;;;31.95;60.63;100654.41;5109008;27;69571;-35
2021/12/16 09:50:54;;;;;;;;;;;;;;;31.95;60.88;100659.81;5128501;27;66381;-34
2021/12/16 09:53:31;;;;;;;;;;;;;;;31.94;60.78;100655.47;5122800;27;70753;-34
2021/12/16 09:56:01;;;;;;;;;;;;;;;31.85;60.84;100641.38;5128254;27;66910;-34
2021/12/16 09:58:38;;;;;;;;;;;;;;;31.93;60.64;100662.78;5133046;27;69324;-34
2021/12/16 10:01:10;;;;;;;;;;;;;;;31.94;60.85;100660.91;5123622;27;66587;-35
2021/12/16 10:03:42;;;;;;;;;;;;;;;31.93;60.58;100670.94;5097006;27;69293;-34
2021/12/16 10:06:12;;;;;;;;;;;;;;;31.83;60.92;100651.63;5106259;27;66231;-35
2021/12/16 10:08:43;;;;;;;;;;;;;;;31.92;60.48;100666.53;5119699;27;70257;-33
2021/12/16 10:11:15;;;;;;;;;;;;;;;31.92;60.62;100671.13;5123325;27;67511;-34
2021/12/16 10:14:03;;;;;;;;;;;;;;;31.92;60.75;100679.28;5132348;27;69768;-33
2021/12/16 10:19:31;;;;;;;;;;;;;;;31.90;60.69;100687.63;5107873;27;69875;-34
2021/12/16 10:22:25;;;;;;;;;;;;;;;31.90;60.96;100692.22;5118739;27;66397;-34
2021/12/16 10:24:57;;;;;;;;;;;;;;;31.88;60.93;100703.31;5111054;27;69454;-35
2021/12/16 10:27:28;;;;;;;;;;;;;;;31.87;61.02;100698.91;5118686;27;66347;-34
2021/12/16 10:30:00;;;;;;;;;;;;;;;31.87;60.95;100707.06;5107095;27;70569;-35
2021/12/16 10:32:31;;;;;;;;;;;;;;;31.86;60.94;100705.41;5100846;27;66010;-35
2021/12/16 10:35:09;;;;;;;;;;;;;;;31.72;60.82;100684.97;5124548;27;69225;-34
2021/12/16 10:37:41;;;;;;;;;;;;;;;31.85;60.86;100709.19;5104726;27;66488;-34
2021/12/16 10:40:29;;;;;;;;;;;;;;;31.86;61.34;100713.56;5118277;27;70147;-34
2021/12/16 10:43:03;;;;;;;;;;;;;;;31.84;60.80;100712.94;5107923;27;66492;-34
2021/12/16 10:45:36;;;;;;;;;;;;;;;31.83;61.16;100712.13;5120909;27;70188;-34
2021/12/16 10:48:10;;;;;;;;;;;;;;;31.81;61.22;100722.38;5093295;27;65299;-35
2021/12/16 10:50:48;;;;;;;;;;;;;;;31.79;61.09;100723.69;5128023;27;69564;-34
2021/12/16 10:53:38;;;;;;;;;;;;;;;31.79;61.05;100731.81;5095359;27;66127;-35
2021/12/16 10:56:10;;;;;;;;;;;;;;;31.77;61.31;100729.31;5128810;27;70454;-35
2021/12/16 10:58:48;;;;;;;;;;;;;;;31.81;61.50;100727.78;5110747;27;66205;-35
2021/12/16 11:01:36;;;;;;;;;;;;;;;31.84;61.30;100729.22;5134017;27;70602;-35
2021/12/16 11:04:09;;;;;;;;;;;;;;;31.85;62.37;100725.47;5110494;27;66440;-34
2021/12/16 11:06:43;;;;;;;;;;;;;;;31.88;62.16;100735.84;5130215;27;70612;-35
2021/12/16 11:09:31;;;;;;;;;;;;;;;31.90;62.51;100744.59;5124271;27;66299;-35
2021/12/16 11:12:07;;;;;;;;;;;;;;;31.91;62.07;100746.28;5131852;27;69860;-35
2021/12/16 11:14:38;;;;;;;;;;;;;;;31.92;62.23;100747.91;5128249;27;66273;-35
2021/12/16 11:17:11;;;;;;;;;;;;;;;31.92;62.13;100753.34;5111311;27;69111;-34
2021/12/16 11:19:44;;;;;;;;;;;;;;;31.92;62.98;100753.34;5120725;27;66672;-34
2021/12/16 11:22:17;;;;;;;;;;;;;;;31.93;62.42;100759.59;5127827;27;70122;-35
2021/12/16 11:24:48;;;;;;;;;;;;;;;31.93;62.73;100765.88;5120764;27;65758;-35
2021/12/16 11:27:33;;;;;;;;;;;;;;;31.93;62.38;100765.00;5129666;27;69446;-35
2021/12/16 11:30:22;;;;;;;;;;;;;;;31.93;62.79;100776.72;5126920;27;66372;-35
2021/12/16 11:32:53;;;;;;;;;;;;;;;31.94;62.53;100774.84;5120038;27;69896;-37
2021/12/16 11:35:24;;;;;;;;;;;;;;;31.93;62.50;100782.16;5106807;27;66000;-35
2021/12/16 11:37:55;;;;;;;;;;;;;;;31.92;62.05;100785.06;5129282;27;69436;-38
2021/12/16 11:40:28;;;;;;;;;;;;;;;31.91;62.14;100777.97;5089944;27;66205;-35
2021/12/16 11:43:04;;;;;;;;;;;;;;;31.89;62.29;100786.31;5127808;27;70962;-34
2021/12/16 11:45:37;;;;;;;;;;;;;;;31.88;62.46;100790.09;5123443;27;66382;-36
2021/12/16 11:48:26;;;;;;;;;;;;;;;31.87;62.19;100803.88;5121214;27;69180;-34
2021/12/16 11:51:16;;;;;;;;;;;;;;;31.87;61.81;100810.13;5131427;27;66852;-34
2021/12/16 11:53:54;;;;;;;;;;;;;;;31.64;64.55;100812.75;5101930;27;69654;-34
2021/12/16 11:56:39;;;;;;;;;;;;;;;31.53;65.05;100815.16;5125993;27;66674;-35
2021/12/16 11:59:12;;;;;;;;;;;;;;;31.44;65.98;100821.94;5099845;27;69452;-35
2021/12/16 12:01:48;;;;;;;;;;;;;;;31.13;63.72;100826.38;5098818;27;66444;-35
2021/12/16 12:04:44;;;;;;;;;;;;;;;30.76;60.55;100836.28;5127110;27;69295;-35
2021/12/16 12:07:17;;;;;;;;;;;;;;;30.34;58.49;100832.41;5111056;27;65321;-35
2021/12/16 12:09:50;;;;;;;;;;;;;;;30.15;57.16;100835.00;5137556;27;71039;-34
2021/12/16 12:12:47;;;;;;;;;;;;;;;29.95;56.00;100839.66;5100513;27;66565;-35
2021/12/16 12:15:20;;;;;;;;;;;;;;;29.76;55.46;100839.53;5102543;27;69500;-36
2021/12/16 12:18:05;;;;;;;;;;;;;;;;;;;;;
2021/12/16 12:20:41;;;;;;;;;;;;;;;29.43;53.39;100846.91;5126366;27;69256;-34
2021/12/16 12:23:32;;;;;;;;;;;;;;;29.29;52.68;100851.50;5090789;27;66350;-34
2021/12/16 12:26:06;;;;;;;;;;;;;;;29.18;52.23;100847.56;5108738;27;69212;-35
2021/12/16 12:28:36;;;;;;;;;;;;;;;29.08;51.88;100849.84;5098071;27;66955;-33
2021/12/16 12:31:18;;;;;;;;;;;;;;;28.99;50.79;100851.06;5126934;27;70999;-34
2021/12/16 12:34:04;;;;;;;;;;;;;;;28.78;50.42;100838.59;5121418;27;66300;-34
2021/12/16 12:36:45;;;;;;;;;;;;;;;28.91;49.83;100866.41;5108464;27;70385;-33
2021/12/16 12:39:50;;;;;;;;;;;;;;;28.80;49.93;100869.75;5109341;27;65484;-35
2021/12/16 12:42:29;;;;;;;;;;;;;;;28.75;49.79;100877.63;5129866;27;69012;-33
2021/12/16 12:45:08;;;;;;;;;;;;;;;28.68;49.73;100876.81;5102716;27;65777;-34
2021/12/16 12:48:02;;;;;;;;;;;;;;;28.64;49.45;100880.94;5104608;27;69708;-33
2021/12/16 12:50:48;;;;;;;;;;;;;;;28.59;49.81;100883.44;5107286;27;67020;-36
2021/12/16 12:53:30;;;;;;;;;;;;;;;28.76;51.78;100884.69;5127355;27;70460;-35
2021/12/16 12:56:17;;;;;;;;;;;;;;;28.96;50.58;100885.53;5131888;27;65525;-34
2021/12/16 12:59:11;;;;;;;;;;;;;;;29.04;49.57;100887.25;5126539;27;70960;-34
2021/12/16 13:01:49;;;;;;;;;;;;;;;29.07;49.38;100891.41;5112713;27;65895;-35
2021/12/16 13:04:32;;;;;;;;;;;;;;;29.09;48.37;100900.97;5130885;27;70179;-34
2021/12/16 13:07:33;;;;;;;;;;;;;;;29.07;47.85;100902.19;5126043;27;66970;-34
2021/12/16 13:10:18;;;;;;;;;;;;;;;29.02;47.74;100899.25;5113128;27;70387;-34
2021/12/16 13:13:04;;;;;;;;;;;;;;;29.02;47.57;100893.84;5113198;27;66491;-33
2021/12/16 13:15:52;;;;;;;;;;;;;;;28.96;48.16;100904.44;5111464;27;69962;-35
2021/12/16 13:25:57;;;;;;;;;;;;;;;28.86;48.13;100922.09;5130721;27;67501;-35
2021/12/16 13:28:26;;;;;;;;;;;;;;;28.86;47.66;100927.47;5129444;27;70032;-33
2021/12/16 13:31:54;;;;;;;;;;;;;;;28.89;47.45;100933.31;5129516;27;65658;-34
2021/12/16 13:34:42;;;;;;;;;;;;;;;28.80;46.79;100941.81;5108780;27;70608;-34
2021/12/16 13:37:22;;;;;;;;;;;;;;;28.77;46.56;100940.34;5113609;27;65696;-34
2021/12/16 13:40:00;;;;;;;;;;;;;;;28.73;46.59;100955.31;5126629;27;69262;-33
2021/12/16 13:42:59;;;;;;;;;;;;;;;28.70;46.19;100950.31;5107573;27;66572;-34
2021/12/16 13:46:25;;;;;;;;;;;;;;;28.64;45.62;100956.50;5109777;27;70387;-35
2021/12/16 13:58:51;;;;;;;;;;;;;;;28.65;45.68;100960.88;5095196;27;69973;-34
2021/12/16 14:01:37;;;;;;;;;;;;;;;28.57;45.79;100961.91;5109124;27;65470;-35
2021/12/16 14:05:18;;;;;;;;;;;;;;;28.55;45.32;100958.56;5085493;27;70368;-34
2021/12/16 14:07:52;;;;;;;;;;;;;;;28.50;45.13;100955.63;5117305;27;65036;-34
2021/12/16 14:10:59;;;;;;;;;;;;;;;28.40;44.77;100947.91;5128078;27;69771;-34
2021/12/16 14:25:05;;;;;;;;;;;;;;;28.28;43.85;100976.50;5108067;27;66603;-34
2021/12/16 14:37:23;;;;;;;;;;;;;;;28.15;42.84;100965.63;5108203;27;66600;-34
2021/12/16 14:40:50;;;;;;;;;;;;;;;28.08;42.26;100968.28;4962469;28;70453;-34
2021/12/16 14:43:35;;;;;;;;;;;;;;;28.08;42.12;100962.88;5034020;28;66874;-36
2021/12/16 14:46:09;;;;;;;;;;;;;;;28.06;42.07;100970.38;5104014;27;70272;-35
2021/12/16 14:48:41;;;;;;;;;;;;;;;27.99;42.04;100964.91;5103019;27;65210;-34
2021/12/16 14:51:15;;;;;;;;;;;;;;;27.95;42.10;100963.66;5093124;27;70435;-35
2021/12/16 14:53:54;;;;;;;;;;;;;;;27.92;42.00;100969.47;5095291;27;65319;-34
2021/12/16 14:56:46;;;;;;;;;;;;;;;27.87;41.86;100965.69;5106946;27;69003;-35
2021/12/16 14:59:37;;;;;;;;;;;;;;;27.86;41.93;100959.47;5124479;27;65588;-35
2021/12/16 15:02:17;;;;;;;;;;;;;;;27.82;41.79;100964.41;5089474;27;70020;-33
2021/12/16 15:04:48;;;;;;;;;;;;;;;27.82;41.19;100963.56;5121350;27;66488;-35
2021/12/16 15:07:24;;;;;;;;;;;;;;;27.76;41.71;100961.66;5109225;27;70010;-34
2021/12/16 15:10:13;;;;;;;;;;;;;;;27.77;41.51;100961.44;5102373;27;66146;-34
2021/12/16 15:12:59;;;;;;;;;;;;;;;27.74;41.79;100956.44;5131662;27;70087;-34
2021/12/16 15:36:47;;;;;;;;;;;;;;;27.45;41.14;100946.72;5135204;27;70370;-35
2021/12/16 15:39:37;;;;;;;;;;;;;;;27.49;41.15;100953.34;5131502;27;66853;-35
2021/12/16 15:45:04;;;;;;;;;;;;;;;27.44;40.79;100945.03;5131346;27;67005;-34
2021/12/16 15:47:41;;;;;;;;;;;;;;;27.44;40.64;100934.25;5109424;27;69443;-35
2021/12/16 15:50:13;;;;;;;;;;;;;;;27.39;40.83;100932.16;5129983;27;65279;-34
2021/12/16 15:52:45;;;;;;;;;;;;;;;27.34;40.97;100931.91;5128268;27;69108;-36
2021/12/16 15:55:24;;;;;;;;;;;;;;;27.38;41.12;100940.44;5124777;27;67578;-36
2021/12/16 15:58:02;;;;;;;;;;;;;;;27.46;42.96;100940.28;5125508;27;70386;-34
2021/12/16 16:00:33;;;;;;;;;;;;;;;27.58;45.27;100946.81;5120090;27;65687;-34
2021/12/16 16:03:03;;;;;;;;;;;;;;;27.67;47.74;100935.88;5122507;27;70725;-34
2021/12/16 16:05:36;;;;;;;;;;;;;;;27.77;49.03;100928.25;5123322;27;65106;-32
2021/12/16 16:08:08;;;;;;;;;;;;;;;27.87;50.42;100931.47;5123008;27;70108;-34
2021/12/16 16:10:39;;;;;;;;;;;;;;;27.97;51.84;100940.03;5124776;27;66461;-34
2021/12/16 16:13:12;;;;;;;;;;;;;;;28.05;52.94;100941.72;5125782;27;69005;-33
2021/12/16 16:15:44;;;;;;;;;;;;;;;28.14;53.21;100939.69;5123545;27;66251;-34
2021/12/16 16:18:33;;;;;;;;;;;;;;;28.18;54.73;100938.25;5123853;27;70496;-32
2021/12/16 16:21:04;;;;;;;;;;;;;;;28.16;53.66;100938.44;5122604;27;66414;-35
2021/12/16 16:23:36;;;;;;;;;;;;;;;28.16;52.17;100926.84;5123513;27;69296;-34
2021/12/16 16:26:08;;;;;;;;;;;;;;;28.14;51.47;100931.59;5125592;27;66277;-34
2021/12/16 16:28:41;;;;;;;;;;;;;;;28.11;50.61;100934.69;5128952;27;70260;-34
2021/12/16 16:31:17;;;;;;;;;;;;;;;28.09;50.42;100931.38;5125937;27;66950;-34
2021/12/16 16:33:47;;;;;;;;;;;;;;;28.10;50.05;100941.97;5124928;27;70237;-32
2021/12/16 16:36:20;;;;;;;;;;;;;;;28.09;49.64;100937.59;5122765;27;65781;-34
2021/12/16 16:38:52;;;;;;;;;;;;;;;28.09;49.37;100942.19;5125800;27;69730;-33
2021/12/16 16:41:25;;;;;;;;;;;;;;;28.07;48.92;100940.50;5126506;27;65905;-34
2021/12/16 16:43:55;;;;;;;;;;;;;;;28.06;48.55;100932.63;5126383;27;69360;-34
2021/12/16 16:46:33;;;;;;;;;;;;;;;28.05;48.70;100942.56;5125947;27;67332;-34
2021/12/16 16:49:07;;;;;;;;;;;;;;;28.03;48.19;100931.16;5127365;27;70762;-34
2021/12/16 16:51:37;;;;;;;;;;;;;;;28.03;48.23;100936.53;5110286;27;66018;-34
2021/12/16 16:54:19;;;;;;;;;;;;;;;27.99;48.06;100932.56;5127079;27;71935;-34
2021/12/16 16:57:02;;;;;;;;;;;;;;;28.04;48.10;100938.19;5131801;27;66126;-34
2021/12/16 16:59:37;;;;;;;;;;;;;;;28.03;47.49;100933.84;5130722;27;70886;-33
2021/12/16 17:02:16;;;;;;;;;;;;;;;28.05;47.96;100937.19;5125191;27;66676;-34
2021/12/16 17:05:08;;;;;;;;;;;;;;;28.04;47.42;100938.19;5133565;27;70348;-34